• Join FlightAware (Why Join?)
  • Login
  • US Flag 
04:28AM EDT


 

Airport Tracker/Info


-or-


 

Live Flight TrackerFlight Track Log ✈ BJS439 ✈ 24-Apr-2013 ✈ KORF - KCHO

Flight Track Log - Related Links

Times and Time Zones

All times are in EDT time to prevent confusion due to time zone crossing. See the BJS439 flight status page for this flight to view local times or setup timezone preferences in your user account.

Time Position Orientation Groundspeed Altitude Reporting Facility
EDT Latitude Longitude Course Direction KTS MPH feet Rate Location/Type
07:59AM 36.8658 -76.2331 247° West 164 189 1,600  Level Washington Center
08:00AM 36.8489 -76.2822 247° West 170 196 3,600 2,280 Climbing Washington Center
08:01AM 36.8586 -76.3681 278° West 203 234 7,500 2,880 Climbing Washington Center
08:02AM 36.8978 -76.4308 308° West 211 243 10,900 3,960 Climbing Washington Center
08:03AM 36.9453 -76.5042 309° West 239 275 15,500 2,520 Climbing Washington Center
08:04AM 37.0050 -76.5983 308° West 292 336 16,000 240 Climbing Washington Center
08:05AM 37.0647 -76.6956 308° West 339 390 16,000  Level Washington Center
08:06AM 37.1244 -76.7900 308° West 350 403 16,000  Level Washington Center
08:07AM 37.1839 -76.8850 308° West 350 403 16,000  Level Washington Center
08:08AM 37.2472 -76.9903 307° West 350 403 16,000  Level Washington Center
08:09AM 37.3006 -77.0747 308° West 350 403 16,000  Level Washington Center
08:10AM 37.3661 -77.1622 313° West 345 397 16,000  Level Washington Center
08:11AM 37.4422 -77.2503 317° Northwest 340 391 16,000 -300 Level Washington Center
08:12AM 37.5100 -77.3328 316° Northwest 340 391 15,500 -1,020 Descending Washington Center
08:13AM 37.5669 -77.4258 308° West 328 377 14,000 -1,620 Descending Washington Center
08:14AM 37.6219 -77.5164 307° West 328 377 12,300 -1,620 Descending Washington Center
08:15AM 37.6767 -77.6017 309° West 328 377 10,800 -1,680 Descending Washington Center
08:16AM 37.7214 -77.6736 308° West 306 352 9,000 -1,440 Descending Washington Center
08:17AM 37.7681 -77.7486 308° West 286 329 8,000 -540 Descending Washington Center
08:18AM 37.8125 -77.8208 308° West 274 315 8,000  Level Washington Center
08:19AM 37.8572 -77.8958 307° West 268 308 8,000 -120 Level Washington Center
08:21AM 37.9013 -77.9687 310° West  Level FlightAware Approximate
08:22AM 37.9667 -78.0667 310° West 280 322 7,700  Level Potomac TRACON
08:22AM 37.9983 -78.1267 304° West 273 314 8,000 -1,140 Climbing Washington Center
08:23AM 38.0508 -78.2103 309° West 273 314 5,600 -1,680 Descending Washington Center
08:25AM 38.1333 -78.3500 307° West 233 268 3,200 -1,380 Descending Potomac TRACON
08:26AM 38.1500 -78.3833 302° West 193 222 2,000 -960 Descending Potomac TRACON
08:27AM 38.1667 -78.4333 293° West 134 154 1,400 -600 Descending Potomac TRACON
08:29AM 38.1333 -78.4500 302° West  Level FlightAware Approximate
08:36AM 38.1386 -78.4529 302° West  Level Estimated
08:37AM 38.1333 -78.4500 302° West  Level FlightAware Approximate
08:38AM 38.1386 -78.4529 302° West  Level Estimated
08:39AM 38.1333 -78.4500 302° West  Level FlightAware Approximate